Terminal Aerodrome Forecast
Issued by NWS

Home | Current Version | Previous Version | Text Only | Print | Product List | Glossary On
Versions: 1 2 3 4 5 6 7 8 9 10 11 12 13 14 15 16 17 18 19 20 21 22
000
FTUS43 KAPX 251120
TAFPLN
TAF
KPLN 251120Z 2512/2612 05008KT P6SM -SHRA OVC080
     FM251500 05011KT P6SM VCSH OVC050
     FM251700 06011KT P6SM VCSH OVC030
     FM260200 04005KT P6SM OVC030
     FM260600 VRB03KT 2SM BR OVC015=

USA.gov is the U.S. government's official web portal to all federal, state and local government web resources and services.